createdAt,value
2023-04-18T00:02:26.109Z,100.00
2023-04-18T00:04:54.485Z,100.00
2023-04-18T00:07:23.738Z,100.00
2023-04-18T00:09:51.448Z,100.00
2023-04-18T00:12:19.202Z,100.00
2023-04-18T00:14:46.894Z,100.00
2023-04-18T00:17:14.672Z,100.00
2023-04-18T00:19:43.279Z,100.00
2023-04-18T00:22:11.173Z,100.00
2023-04-18T00:24:41.044Z,100.00
2023-04-18T00:27:08.791Z,100.00
2023-04-18T00:29:36.534Z,100.00
2023-04-18T00:32:04.272Z,100.00
2023-04-18T00:34:31.988Z,100.00
2023-04-18T00:36:59.752Z,100.00
2023-04-18T00:39:27.535Z,100.00
2023-04-18T00:41:56.628Z,100.00
2023-04-18T00:44:24.365Z,100.00
2023-04-18T00:46:52.075Z,100.00
2023-04-18T00:49:20.177Z,100.00
2023-04-18T00:51:48.639Z,100.00
2023-04-18T00:54:18.953Z,100.00
2023-04-18T00:56:46.878Z,100.00
2023-04-18T00:59:15.970Z,100.00
2023-04-18T01:01:45.154Z,100.00
2023-04-18T01:04:13.529Z,100.00
2023-04-18T01:06:43.818Z,100.00
2023-04-18T01:09:11.826Z,100.00
2023-04-18T01:11:39.535Z,100.00
2023-04-18T01:14:08.838Z,100.00
2023-04-18T01:16:38.929Z,100.00
2023-04-18T01:19:06.896Z,100.00
2023-04-18T01:21:37.199Z,100.00
2023-04-18T01:24:11.868Z,100.00
2023-04-18T01:26:40.028Z,100.00
2023-04-18T01:29:08.182Z,100.00
2023-04-18T01:31:37.048Z,100.00
2023-04-18T01:34:04.823Z,100.00
2023-04-18T01:36:33.032Z,100.00
2023-04-18T01:39:01.104Z,100.00
2023-04-18T01:41:32.711Z,100.00
2023-04-18T01:44:01.056Z,100.00
2023-04-18T01:46:29.159Z,100.00
2023-04-18T01:48:56.980Z,100.00
2023-04-18T01:51:24.862Z,100.00
2023-04-18T01:53:52.659Z,100.00
2023-04-18T01:56:20.933Z,100.00
2023-04-18T01:58:50.054Z,100.00
2023-04-18T02:01:17.762Z,100.00
2023-04-18T02:03:45.775Z,100.00
2023-04-18T02:06:13.882Z,100.00
2023-04-18T02:08:41.587Z,100.00
2023-04-18T02:11:09.301Z,100.00
2023-04-18T02:13:37.015Z,100.00
2023-04-18T02:16:06.905Z,100.00
2023-04-18T02:18:35.326Z,100.00
2023-04-18T02:21:03.108Z,100.00
2023-04-18T02:23:30.798Z,100.00
2023-04-18T02:25:58.516Z,100.00
2023-04-18T02:28:26.239Z,100.00
2023-04-18T02:30:53.956Z,100.00
2023-04-18T02:33:23.040Z,100.00
2023-04-18T02:35:50.785Z,100.00
2023-04-18T02:38:18.535Z,100.00
2023-04-18T02:40:46.313Z,100.00
2023-04-18T02:43:14.028Z,100.00
2023-04-18T02:45:41.836Z,100.00
2023-04-18T02:48:09.615Z,100.00
2023-04-18T02:50:38.812Z,100.00
2023-04-18T02:53:06.534Z,100.00
2023-04-18T02:55:34.418Z,100.00
2023-04-18T02:58:02.104Z,100.00
2023-04-18T03:00:30.170Z,100.00
2023-04-18T03:02:58.066Z,100.00
2023-04-18T03:05:26.206Z,100.00
2023-04-18T03:07:55.300Z,100.00
2023-04-18T03:10:23.049Z,100.00
2023-04-18T03:12:50.772Z,100.00
2023-04-18T03:15:18.662Z,100.00
2023-04-18T03:17:46.412Z,100.00
2023-04-18T03:20:14.465Z,100.00
2023-04-18T03:22:42.208Z,100.00
2023-04-18T03:25:11.465Z,100.00
2023-04-18T03:27:39.244Z,100.00
2023-04-18T03:30:08.268Z,100.00
2023-04-18T03:32:36.431Z,100.00
2023-04-18T03:35:04.602Z,100.00
2023-04-18T03:37:32.322Z,100.00
2023-04-18T03:40:00.044Z,100.00
2023-04-18T03:42:29.184Z,100.00
2023-04-18T03:44:56.907Z,100.00
2023-04-18T03:47:24.714Z,100.00
2023-04-18T03:49:54.257Z,100.00
2023-04-18T03:52:21.989Z,100.00
2023-04-18T03:54:49.708Z,100.00
2023-04-18T03:57:17.444Z,100.00
2023-04-18T03:59:47.920Z,100.00
2023-04-18T04:02:15.938Z,100.00
2023-04-18T04:04:43.905Z,100.00
2023-04-18T04:07:12.010Z,100.00
2023-04-18T04:09:39.720Z,100.00
2023-04-18T04:12:07.565Z,100.00
2023-04-18T04:14:35.311Z,100.00
2023-04-18T04:17:04.442Z,100.00
2023-04-18T04:19:32.181Z,100.00
2023-04-18T04:21:59.883Z,100.00
2023-04-18T04:24:29.098Z,100.00
2023-04-18T04:26:57.154Z,100.00
2023-04-18T04:29:24.872Z,100.00
2023-04-18T04:31:52.837Z,100.00
2023-04-18T04:34:22.059Z,100.00
2023-04-18T04:36:51.163Z,100.00
2023-04-18T04:39:18.892Z,100.00
2023-04-18T04:41:47.174Z,100.00
2023-04-18T04:44:17.889Z,100.00
2023-04-18T04:46:45.822Z,100.00
2023-04-18T04:49:13.654Z,100.00
2023-04-18T04:51:43.020Z,100.00
2023-04-18T04:54:10.781Z,100.00
2023-04-18T04:56:38.488Z,100.00
2023-04-18T04:59:06.182Z,100.00
2023-04-18T05:01:34.004Z,100.00
2023-04-18T05:04:01.906Z,100.00
2023-04-18T05:06:29.853Z,100.00
2023-04-18T05:09:00.894Z,100.00
2023-04-18T05:11:28.672Z,100.00
2023-04-18T05:13:56.394Z,100.00
2023-04-18T05:16:24.229Z,100.00
2023-04-18T05:18:51.978Z,100.00
2023-04-18T05:21:19.747Z,100.00
2023-04-18T05:23:47.472Z,100.00
2023-04-18T05:26:16.550Z,100.00
2023-04-18T05:28:44.300Z,100.00
2023-04-18T05:31:12.101Z,100.00
2023-04-18T05:33:39.849Z,100.00
2023-04-18T05:36:08.697Z,100.00
2023-04-18T05:38:36.834Z,100.00
2023-04-18T05:41:04.572Z,100.00
2023-04-18T05:43:33.816Z,100.00
2023-04-18T05:46:01.656Z,100.00
2023-04-18T05:48:29.492Z,100.00
2023-04-18T05:50:57.850Z,100.00
2023-04-18T05:53:25.600Z,100.00
2023-04-18T05:55:53.517Z,100.00
2023-04-18T05:58:21.268Z,100.00
2023-04-18T06:00:50.331Z,100.00
2023-04-18T06:03:18.313Z,100.00
2023-04-18T06:05:46.293Z,100.00
2023-04-18T06:08:14.046Z,100.00
2023-04-18T06:10:41.765Z,100.00
2023-04-18T06:13:09.553Z,100.00
2023-04-18T06:15:37.261Z,100.00
2023-04-18T06:18:06.429Z,100.00
2023-04-18T06:20:34.191Z,100.00
2023-04-18T06:23:01.909Z,100.00
2023-04-18T06:25:29.657Z,100.00
2023-04-18T06:27:57.376Z,100.00
2023-04-18T06:30:25.423Z,100.00
2023-04-18T06:32:53.252Z,100.00
2023-04-18T06:35:23.649Z,100.00
2023-04-18T06:37:53.429Z,100.00
2023-04-18T06:40:21.143Z,100.00
2023-04-18T06:42:48.890Z,100.00
2023-04-18T06:45:16.665Z,100.00
2023-04-18T06:47:44.519Z,100.00
2023-04-18T06:50:12.559Z,100.00
2023-04-18T06:52:44.471Z,100.00
2023-04-18T06:55:13.155Z,100.00
2023-04-18T06:57:42.221Z,100.00
2023-04-18T07:00:11.481Z,100.00
2023-04-18T07:02:40.447Z,100.00
2023-04-18T07:05:09.057Z,100.00
2023-04-18T07:07:36.810Z,100.00
2023-04-18T07:10:07.184Z,100.00
2023-04-18T07:12:34.905Z,100.00
2023-04-18T07:15:03.494Z,100.00
2023-04-18T07:17:31.457Z,100.00
2023-04-18T07:19:59.808Z,100.00
2023-04-18T07:22:27.531Z,100.00
2023-04-18T07:24:55.287Z,100.00
2023-04-18T07:27:24.370Z,100.00
2023-04-18T07:29:52.078Z,100.00
2023-04-18T07:32:19.869Z,100.00
2023-04-18T07:34:48.437Z,100.00
2023-04-18T07:37:17.534Z,100.00
2023-04-18T07:39:45.291Z,100.00
2023-04-18T07:42:13.165Z,100.00
2023-04-18T07:44:42.303Z,100.00
2023-04-18T07:47:11.100Z,100.00
2023-04-18T07:49:39.439Z,100.00
2023-04-18T07:52:07.224Z,100.00
2023-04-18T07:54:34.971Z,100.00
2023-04-18T07:57:02.665Z,100.00
2023-04-18T07:59:32.209Z,100.00
2023-04-18T08:02:01.465Z,100.00
2023-04-18T08:04:30.432Z,100.00
2023-04-18T08:06:58.521Z,100.00
2023-04-18T08:09:26.260Z,100.00
2023-04-18T08:11:55.193Z,100.00
2023-04-18T08:14:22.983Z,100.00
2023-04-18T08:16:52.095Z,100.00
2023-04-18T08:19:21.277Z,100.00
2023-04-18T08:21:52.351Z,100.00
2023-04-18T08:24:20.137Z,100.00
2023-04-18T08:26:47.908Z,100.00
2023-04-18T08:29:15.997Z,100.00
2023-04-18T08:31:43.912Z,100.00
2023-04-18T08:34:11.670Z,100.00
2023-04-18T08:36:40.756Z,100.00
2023-04-18T08:39:08.581Z,100.00
2023-04-18T08:41:38.672Z,100.00
2023-04-18T08:44:07.622Z,100.00
2023-04-18T08:46:35.816Z,100.00
2023-04-18T08:49:04.746Z,100.00
2023-04-18T08:51:33.918Z,100.00
2023-04-18T08:54:04.634Z,100.00
2023-04-18T08:56:32.407Z,100.00
2023-04-18T08:59:00.703Z,100.00
2023-04-18T09:01:50.601Z,100.00
2023-04-18T09:04:34.337Z,100.00
2023-04-18T09:07:02.252Z,100.00
2023-04-18T09:09:41.526Z,100.00
2023-04-18T09:12:11.220Z,100.00
2023-04-18T09:14:42.927Z,100.00
2023-04-18T09:17:13.037Z,100.00
2023-04-18T09:19:48.794Z,100.00
2023-04-18T09:22:17.413Z,100.00
2023-04-18T09:24:57.698Z,100.00
2023-04-18T09:27:25.882Z,100.00
2023-04-18T09:29:56.528Z,100.00
2023-04-18T09:32:27.367Z,100.00
2023-04-18T09:34:58.006Z,100.00
2023-04-18T09:37:26.601Z,100.00
2023-04-18T09:39:56.396Z,100.00
2023-04-18T09:42:26.125Z,100.00
2023-04-18T09:45:05.142Z,100.00
2023-04-18T09:47:35.026Z,100.00
2023-04-18T09:50:04.310Z,100.00
2023-04-18T09:52:35.212Z,100.00
2023-04-18T09:55:06.764Z,100.00
2023-04-18T09:57:35.790Z,100.00
2023-04-18T10:00:13.982Z,100.00
2023-04-18T10:02:50.736Z,100.00
2023-04-18T10:05:21.210Z,100.00
2023-04-18T10:07:50.886Z,100.00
2023-04-18T10:10:20.315Z,100.00
2023-04-18T10:12:50.751Z,100.00
2023-04-18T10:15:20.927Z,100.00
2023-04-18T10:18:03.650Z,100.00
2023-04-18T10:20:34.890Z,100.00
2023-04-18T10:23:37.235Z,100.00
2023-04-18T10:26:07.228Z,100.00
2023-04-18T10:28:53.275Z,100.00
2023-04-18T10:31:23.096Z,100.00
2023-04-18T10:34:03.990Z,100.00
2023-04-18T10:36:33.512Z,100.00
2023-04-18T10:39:03.922Z,100.00
2023-04-18T10:41:33.872Z,100.00
2023-04-18T10:44:19.401Z,100.00
2023-04-18T10:47:21.756Z,100.00
2023-04-18T10:49:58.868Z,100.00
2023-04-18T10:52:27.641Z,100.00
2023-04-18T10:55:13.942Z,100.00
2023-04-18T10:57:44.822Z,88.46
2023-04-18T11:00:15.147Z,89.98
2023-04-18T11:02:50.136Z,84.70
2023-04-18T11:05:23.238Z,78.09
2023-04-18T11:07:51.320Z,83.74
2023-04-18T11:10:21.072Z,78.32
2023-04-18T11:12:50.648Z,82.44
2023-04-18T11:15:21.904Z,80.15
2023-04-18T11:17:58.041Z,88.83
2023-04-18T11:20:26.558Z,86.05
2023-04-18T11:22:56.184Z,79.03
2023-04-18T11:25:26.886Z,84.55
2023-04-18T11:27:56.334Z,80.90
2023-04-18T11:30:24.172Z,76.28
2023-04-18T11:32:52.561Z,66.56
2023-04-18T11:35:20.366Z,62.11
2023-04-18T11:37:50.031Z,72.50
2023-04-18T11:40:17.942Z,64.19
2023-04-18T11:42:45.754Z,58.36
2023-04-18T11:45:15.979Z,65.99
2023-04-18T11:47:46.759Z,71.53
2023-04-18T11:50:14.660Z,83.13
2023-04-18T11:52:43.433Z,80.77
2023-04-18T11:55:14.115Z,86.97
2023-04-18T11:57:42.550Z,85.05
2023-04-18T12:00:12.303Z,77.82
2023-04-18T12:02:43.579Z,84.99
2023-04-18T12:05:11.872Z,80.15
2023-04-18T12:07:41.520Z,79.41
2023-04-18T12:10:10.907Z,75.15
2023-04-18T12:12:38.650Z,78.74
2023-04-18T12:15:12.279Z,85.30
2023-04-18T12:17:45.176Z,91.09
2023-04-18T12:20:13.736Z,85.47
2023-04-18T12:22:43.769Z,79.44
2023-04-18T12:25:27.557Z,68.08
2023-04-18T12:27:58.029Z,60.09
2023-04-18T12:30:28.152Z,58.13
2023-04-18T12:32:59.945Z,57.12
2023-04-18T12:35:28.856Z,59.86
2023-04-18T12:37:57.903Z,68.75
2023-04-18T12:40:26.770Z,54.99
2023-04-18T12:42:55.485Z,69.50
2023-04-18T12:45:25.070Z,70.82
2023-04-18T12:47:53.569Z,70.55
2023-04-18T12:50:24.443Z,82.00
2023-04-18T12:52:53.523Z,84.26
2023-04-18T12:55:21.814Z,75.24
2023-04-18T12:57:54.129Z,72.49
2023-04-18T13:00:23.424Z,67.81
2023-04-18T13:02:53.562Z,68.44
2023-04-18T13:05:25.450Z,58.85
2023-04-18T13:08:04.788Z,80.76
2023-04-18T13:10:40.902Z,93.71
2023-04-18T13:13:08.612Z,98.48
2023-04-18T13:15:36.755Z,97.32
2023-04-18T13:18:06.655Z,100.00
2023-04-18T13:20:36.508Z,100.00
2023-04-18T13:23:04.371Z,100.00
2023-04-18T13:25:32.366Z,100.00
2023-04-18T13:28:00.953Z,100.00
2023-04-18T13:30:28.949Z,100.00
2023-04-18T13:32:56.772Z,100.00
2023-04-18T13:35:24.659Z,100.00
2023-04-18T13:37:53.774Z,100.00
2023-04-18T13:40:21.662Z,100.00
2023-04-18T13:42:49.366Z,100.00
2023-04-18T13:45:17.130Z,100.00
2023-04-18T13:47:44.908Z,94.85
2023-04-18T13:50:12.628Z,100.00
2023-04-18T13:52:40.353Z,100.00
2023-04-18T13:55:12.398Z,100.00
2023-04-18T13:57:41.193Z,100.00
2023-04-18T14:00:13.655Z,100.00
2023-04-18T14:02:41.914Z,96.49
2023-04-18T14:05:10.675Z,100.00
2023-04-18T14:07:38.772Z,100.00
2023-04-18T14:10:07.542Z,100.00
2023-04-18T14:12:36.699Z,100.00
2023-04-18T14:15:04.997Z,86.56
2023-04-18T14:17:32.773Z,84.81
2023-04-18T14:20:02.318Z,100.00
2023-04-18T14:22:30.269Z,100.00
2023-04-18T14:24:57.997Z,100.00
2023-04-18T14:27:26.170Z,100.00
2023-04-18T14:29:55.340Z,100.00
2023-04-18T14:32:23.100Z,100.00
2023-04-18T14:34:50.835Z,100.00
2023-04-18T14:37:18.570Z,100.00
2023-04-18T14:39:46.547Z,100.00
2023-04-18T14:42:14.247Z,100.00
2023-04-18T14:44:42.373Z,100.00
2023-04-18T14:47:11.584Z,100.00
2023-04-18T14:49:39.471Z,100.00
2023-04-18T14:52:07.172Z,100.00
2023-04-18T14:54:34.878Z,100.00
2023-04-18T14:57:02.618Z,100.00
2023-04-18T14:59:30.359Z,100.00
2023-04-18T15:01:58.144Z,100.00
2023-04-18T15:04:27.468Z,81.12
2023-04-18T15:06:55.342Z,92.64
2023-04-18T15:09:23.246Z,98.45
2023-04-18T15:11:51.754Z,100.00
2023-04-18T15:14:19.845Z,83.50
2023-04-18T15:16:50.370Z,66.78
2023-04-18T15:19:18.262Z,81.55
2023-04-18T15:21:47.348Z,90.11
2023-04-18T15:24:15.941Z,100.00
2023-04-18T15:26:44.080Z,100.00
2023-04-18T15:29:11.804Z,95.82
2023-04-18T15:31:39.569Z,98.53
2023-04-18T15:34:08.110Z,99.92
2023-04-18T15:36:36.733Z,100.00
2023-04-18T15:39:06.704Z,95.79
2023-04-18T15:41:36.194Z,100.00
2023-04-18T15:44:06.584Z,88.40
2023-04-18T15:46:36.107Z,92.59
2023-04-18T15:49:03.864Z,88.05
2023-04-18T15:51:31.616Z,90.97
2023-04-18T15:53:59.326Z,90.35
2023-04-18T15:56:28.414Z,88.24
2023-04-18T15:58:58.150Z,87.95
2023-04-18T16:01:25.933Z,93.24
2023-04-18T16:03:53.807Z,83.23
2023-04-18T16:06:23.336Z,87.83
2023-04-18T16:08:51.155Z,83.42
2023-04-18T16:11:21.320Z,80.50
2023-04-18T16:13:50.409Z,79.74
2023-04-18T16:16:18.231Z,79.82
2023-04-18T16:18:46.062Z,79.74
2023-04-18T16:21:15.385Z,74.87
2023-04-18T16:23:43.160Z,64.32
2023-04-18T16:26:10.928Z,70.25
2023-04-18T16:28:38.970Z,70.81
2023-04-18T16:31:08.141Z,54.94
2023-04-18T16:33:36.165Z,44.18
2023-04-18T16:36:04.496Z,42.22
2023-04-18T16:38:32.272Z,40.51
2023-04-18T16:41:01.530Z,39.62
2023-04-18T16:43:30.959Z,40.16
2023-04-18T16:46:00.326Z,39.94
2023-04-18T16:48:30.101Z,40.92
2023-04-18T16:50:58.151Z,40.63
2023-04-18T16:53:26.480Z,40.28
2023-04-18T16:55:54.609Z,40.92
2023-04-18T16:58:23.470Z,42.27
2023-04-18T17:00:52.551Z,42.39
2023-04-18T17:03:20.409Z,41.10
2023-04-18T17:05:49.639Z,42.45
2023-04-18T17:08:17.773Z,45.32
2023-04-18T17:10:45.600Z,44.00
2023-04-18T17:13:13.322Z,42.22
2023-04-18T17:15:41.349Z,42.57
2023-04-18T17:18:09.147Z,44.50
2023-04-18T17:20:37.387Z,44.72
2023-04-18T17:23:06.579Z,44.39
2023-04-18T17:25:34.361Z,46.21
2023-04-18T17:28:02.341Z,47.12
2023-04-18T17:30:30.441Z,51.40
2023-04-18T17:32:58.240Z,56.58
2023-04-18T17:35:26.099Z,65.50
2023-04-18T17:37:53.885Z,71.27
2023-04-18T17:40:23.089Z,77.56
2023-04-18T17:42:50.824Z,76.61
2023-04-18T17:45:20.453Z,75.27
2023-04-18T17:47:49.521Z,81.31
2023-04-18T17:50:17.329Z,88.58
2023-04-18T17:52:46.445Z,90.06
2023-04-18T17:55:14.459Z,82.33
2023-04-18T17:57:43.562Z,76.65
2023-04-18T18:00:13.747Z,74.06
2023-04-18T18:02:42.815Z,74.79
2023-04-18T18:05:12.991Z,73.09
2023-04-18T18:07:43.139Z,72.07
2023-04-18T18:10:12.067Z,66.04
2023-04-18T18:12:40.664Z,56.26
2023-04-18T18:15:10.886Z,49.98
2023-04-18T18:17:38.748Z,49.03
2023-04-18T18:20:09.877Z,48.76
2023-04-18T18:22:38.098Z,49.16
2023-04-18T18:25:06.440Z,48.72
2023-04-18T18:27:34.260Z,49.58
2023-04-18T18:30:01.966Z,52.95
2023-04-18T18:32:31.140Z,53.92
2023-04-18T18:34:58.960Z,54.39
2023-04-18T18:37:27.258Z,54.53
2023-04-18T18:39:55.415Z,55.34
2023-04-18T18:42:23.169Z,58.40
2023-04-18T18:44:50.978Z,56.98
2023-04-18T18:47:19.268Z,60.17
2023-04-18T18:49:48.728Z,63.00
2023-04-18T18:52:16.897Z,61.70
2023-04-18T18:54:44.630Z,64.36
2023-04-18T18:57:12.374Z,64.85
2023-04-18T18:59:40.088Z,63.69
2023-04-18T19:02:08.037Z,62.97
2023-04-18T19:04:35.878Z,61.87
2023-04-18T19:07:05.953Z,63.63
2023-04-18T19:09:33.766Z,65.29
2023-04-18T19:12:01.534Z,65.22
2023-04-18T19:14:29.492Z,67.77
2023-04-18T19:16:58.018Z,67.03
2023-04-18T19:19:25.983Z,72.90
2023-04-18T19:21:53.753Z,71.88
2023-04-18T19:24:22.927Z,79.89
2023-04-18T19:26:50.852Z,78.17
2023-04-18T19:29:18.643Z,79.84
2023-04-18T19:31:46.428Z,79.04
2023-04-18T19:34:14.291Z,84.76
2023-04-18T19:36:41.995Z,82.69
2023-04-18T19:39:09.734Z,89.46
2023-04-18T19:41:38.828Z,90.04
2023-04-18T19:44:06.592Z,93.50
2023-04-18T19:46:34.438Z,97.00
2023-04-18T19:49:02.295Z,95.77
2023-04-18T19:51:30.052Z,91.56
2023-04-18T19:53:57.798Z,94.48
2023-04-18T19:56:25.622Z,96.56
2023-04-18T19:58:55.181Z,97.42
2023-04-18T20:01:24.123Z,97.83
2023-04-18T20:03:52.317Z,100.00
2023-04-18T20:06:20.402Z,100.00
2023-04-18T20:08:48.298Z,100.00
2023-04-18T20:11:16.150Z,100.00
2023-04-18T20:13:43.902Z,100.00
2023-04-18T20:16:13.207Z,100.00
2023-04-18T20:18:42.189Z,100.00
2023-04-18T20:21:11.005Z,100.00
2023-04-18T20:23:40.455Z,100.00
2023-04-18T20:26:08.236Z,100.00
2023-04-18T20:28:36.257Z,100.00
2023-04-18T20:31:04.149Z,100.00
2023-04-18T20:33:33.262Z,100.00
2023-04-18T20:36:00.989Z,100.00
2023-04-18T20:38:29.589Z,100.00
2023-04-18T20:41:00.520Z,100.00
2023-04-18T20:43:28.354Z,100.00
2023-04-18T20:45:57.997Z,100.00
2023-04-18T20:48:25.904Z,100.00
2023-04-18T20:50:54.971Z,100.00
2023-04-18T20:53:25.943Z,100.00
2023-04-18T20:55:53.740Z,100.00
2023-04-18T20:58:21.522Z,100.00
2023-04-18T21:00:49.527Z,100.00
2023-04-18T21:03:17.841Z,100.00
2023-04-18T21:05:46.183Z,100.00
2023-04-18T21:08:15.582Z,100.00
2023-04-18T21:10:43.338Z,100.00
2023-04-18T21:13:12.561Z,100.00
2023-04-18T21:15:41.842Z,100.00
2023-04-18T21:18:09.691Z,100.00
2023-04-18T21:20:37.565Z,100.00
2023-04-18T21:23:05.316Z,100.00
2023-04-18T21:25:34.431Z,100.00
2023-04-18T21:28:02.371Z,100.00
2023-04-18T21:30:30.725Z,100.00
2023-04-18T21:32:58.546Z,100.00
2023-04-18T21:35:26.491Z,100.00
2023-04-18T21:37:54.204Z,100.00
2023-04-18T21:40:22.148Z,100.00
2023-04-18T21:42:51.896Z,100.00
2023-04-18T21:45:19.755Z,100.00
2023-04-18T21:47:47.529Z,100.00
2023-04-18T21:50:15.268Z,100.00
2023-04-18T21:52:42.998Z,100.00
2023-04-18T21:55:11.004Z,100.00
2023-04-18T21:57:38.726Z,100.00
2023-04-18T22:00:10.642Z,100.00
2023-04-18T22:02:38.625Z,100.00
2023-04-18T22:05:07.574Z,100.00
2023-04-18T22:07:43.250Z,100.00
2023-04-18T22:10:18.406Z,100.00
2023-04-18T22:12:46.220Z,100.00
2023-04-18T22:15:15.466Z,100.00
2023-04-18T22:17:43.253Z,100.00
2023-04-18T22:20:11.353Z,100.00
2023-04-18T22:22:39.109Z,100.00
2023-04-18T22:25:11.321Z,100.00
2023-04-18T22:27:39.617Z,100.00
2023-04-18T22:30:08.513Z,100.00
2023-04-18T22:32:37.760Z,100.00
2023-04-18T22:35:06.611Z,100.00
2023-04-18T22:37:34.398Z,100.00
2023-04-18T22:40:02.151Z,100.00
2023-04-18T22:42:32.115Z,100.00
2023-04-18T22:45:01.018Z,100.00
2023-04-18T22:47:28.925Z,100.00
2023-04-18T22:49:58.029Z,100.00
2023-04-18T22:52:26.024Z,100.00
2023-04-18T22:54:53.986Z,100.00
2023-04-18T22:57:21.799Z,100.00
2023-04-18T22:59:49.529Z,100.00
2023-04-18T23:02:17.404Z,100.00
2023-04-18T23:04:46.039Z,100.00
2023-04-18T23:07:15.447Z,100.00
2023-04-18T23:09:43.202Z,100.00
2023-04-18T23:12:10.972Z,100.00
2023-04-18T23:14:38.893Z,100.00
2023-04-18T23:17:06.641Z,100.00
2023-04-18T23:19:34.354Z,100.00
2023-04-18T23:22:02.174Z,100.00
2023-04-18T23:24:31.838Z,100.00
2023-04-18T23:26:59.588Z,100.00
2023-04-18T23:29:27.304Z,100.00
2023-04-18T23:31:55.188Z,100.00
2023-04-18T23:34:23.128Z,100.00
2023-04-18T23:36:50.859Z,100.00
2023-04-18T23:39:18.672Z,100.00
2023-04-18T23:41:47.768Z,100.00
2023-04-18T23:44:15.587Z,100.00
2023-04-18T23:46:43.381Z,100.00
2023-04-18T23:49:11.181Z,100.00
2023-04-18T23:51:39.146Z,100.00
2023-04-18T23:54:07.586Z,100.00
2023-04-18T23:56:35.706Z,100.00
2023-04-18T23:59:04.831Z,100.00
